createdAt,value
2022-12-24T00:01:37.445Z,11.86
2022-12-24T00:04:06.412Z,11.51
2022-12-24T00:06:36.560Z,11.32
2022-12-24T00:09:05.485Z,11.32
2022-12-24T00:11:34.035Z,11.24
2022-12-24T00:14:02.647Z,11.19
2022-12-24T00:16:31.170Z,11.46
2022-12-24T00:18:59.691Z,11.79
2022-12-24T00:21:28.229Z,11.61
2022-12-24T00:23:58.115Z,12.28
2022-12-24T00:26:27.096Z,11.88
2022-12-24T00:28:55.643Z,11.10
2022-12-24T00:31:24.210Z,11.07
2022-12-24T00:33:53.354Z,10.97
2022-12-24T00:36:22.167Z,11.19
2022-12-24T00:38:50.751Z,11.41
2022-12-24T00:41:28.669Z,10.63
2022-12-24T00:43:59.573Z,11.17
2022-12-24T00:46:29.894Z,11.89
2022-12-24T00:48:58.580Z,11.92
2022-12-24T00:51:27.727Z,11.89
2022-12-24T00:53:56.359Z,11.18
2022-12-24T00:56:26.269Z,10.82
2022-12-24T00:58:55.568Z,11.02
2022-12-24T01:01:24.448Z,11.00
2022-12-24T01:04:13.150Z,10.70
2022-12-24T01:06:40.713Z,10.83
2022-12-24T01:09:09.310Z,10.99
2022-12-24T01:11:39.211Z,11.35
2022-12-24T01:14:07.746Z,11.08
2022-12-24T01:16:36.316Z,11.39
2022-12-24T01:19:05.043Z,11.02
2022-12-24T01:21:33.510Z,11.04
2022-12-24T01:24:01.812Z,11.13
2022-12-24T01:26:29.989Z,10.41
2022-12-24T01:29:00.556Z,10.12
2022-12-24T01:31:29.267Z,10.83
2022-12-24T01:33:57.558Z,10.68
2022-12-24T01:36:26.107Z,10.41
2022-12-24T01:38:54.619Z,10.96
2022-12-24T01:41:42.729Z,10.71
2022-12-24T01:44:33.193Z,10.70
2022-12-24T01:47:09.240Z,11.02
2022-12-24T01:49:41.557Z,11.47
2022-12-24T01:52:15.974Z,11.21
2022-12-24T01:54:48.995Z,10.93
2022-12-24T01:57:23.995Z,11.01
2022-12-24T01:59:59.536Z,11.24
2022-12-24T02:02:29.396Z,10.95
2022-12-24T02:05:03.891Z,11.00
2022-12-24T02:07:32.295Z,10.60
2022-12-24T02:10:02.330Z,10.59
2022-12-24T02:12:33.578Z,10.93
2022-12-24T02:15:04.057Z,10.90
2022-12-24T02:17:40.903Z,11.36
2022-12-24T02:20:49.138Z,11.21
2022-12-24T02:24:01.788Z,11.61
2022-12-24T02:26:46.958Z,11.84
2022-12-24T02:29:33.770Z,12.15
2022-12-24T02:32:07.219Z,12.45
2022-12-24T02:34:40.167Z,12.53
2022-12-24T02:37:15.968Z,11.50
2022-12-24T02:39:48.965Z,12.02
2022-12-24T02:42:20.138Z,11.90
2022-12-24T02:44:55.444Z,11.26
2022-12-24T02:47:29.776Z,11.44
2022-12-24T02:50:01.709Z,12.05
2022-12-24T02:52:32.524Z,11.89
2022-12-24T02:55:03.614Z,11.10
2022-12-24T02:57:44.926Z,12.00
2022-12-24T03:00:16.542Z,11.57
2022-12-24T03:03:07.679Z,12.14
2022-12-24T03:05:44.775Z,11.58
2022-12-24T03:08:23.322Z,11.63
2022-12-24T03:10:58.093Z,11.58
2022-12-24T03:13:28.258Z,11.35
2022-12-24T03:15:57.042Z,11.64
2022-12-24T03:18:29.507Z,11.78
2022-12-24T03:21:02.919Z,11.25
2022-12-24T03:23:31.616Z,11.81
2022-12-24T03:26:05.689Z,12.60
2022-12-24T03:28:34.722Z,12.21
2022-12-24T03:31:04.984Z,12.02
2022-12-24T03:33:34.841Z,12.02
2022-12-24T03:36:03.258Z,11.93
2022-12-24T03:38:31.510Z,12.29
2022-12-24T03:41:01.903Z,12.72
2022-12-24T03:43:30.480Z,12.46
2022-12-24T03:45:58.718Z,12.23
2022-12-24T03:48:32.537Z,11.69
2022-12-24T03:51:02.947Z,10.85
2022-12-24T03:53:31.557Z,11.00
2022-12-24T03:56:00.468Z,10.88
2022-12-24T03:58:28.936Z,10.50
2022-12-24T04:00:57.507Z,11.46
2022-12-24T04:03:26.051Z,11.39
2022-12-24T04:06:04.090Z,11.20
2022-12-24T04:08:33.042Z,11.38
2022-12-24T04:11:07.771Z,11.13
2022-12-24T04:13:38.270Z,11.04
2022-12-24T04:16:08.796Z,10.94
2022-12-24T04:18:38.413Z,11.08
2022-12-24T04:21:09.308Z,11.29
2022-12-24T04:23:39.527Z,11.74
2022-12-24T04:26:10.142Z,11.21
2022-12-24T04:28:39.427Z,11.07
2022-12-24T04:31:12.264Z,10.46
2022-12-24T04:33:40.818Z,10.74
2022-12-24T04:36:13.936Z,10.49
2022-12-24T04:38:42.216Z,10.75
2022-12-24T04:41:20.742Z,10.68
2022-12-24T04:43:52.213Z,11.28
2022-12-24T04:46:23.107Z,11.49
2022-12-24T04:48:53.597Z,10.94
2022-12-24T04:51:23.828Z,11.06
2022-12-24T04:53:52.632Z,10.63
2022-12-24T04:56:22.909Z,10.83
2022-12-24T04:58:52.231Z,10.54
2022-12-24T05:01:23.576Z,10.99
2022-12-24T05:03:52.773Z,11.45
2022-12-24T05:06:26.019Z,10.93
2022-12-24T05:08:56.771Z,11.57
2022-12-24T05:11:25.790Z,12.15
2022-12-24T05:13:54.469Z,11.35
2022-12-24T05:16:24.827Z,11.48
2022-12-24T05:18:54.213Z,10.86
2022-12-24T05:21:27.361Z,10.98
2022-12-24T05:24:13.493Z,10.31
2022-12-24T05:26:45.524Z,11.46
2022-12-24T05:29:14.299Z,11.04
2022-12-24T05:31:45.246Z,10.78
2022-12-24T05:34:14.944Z,11.39
2022-12-24T05:36:45.603Z,11.08
2022-12-24T05:39:16.886Z,11.05
2022-12-24T05:41:46.533Z,10.92
2022-12-24T05:44:16.247Z,11.46
2022-12-24T05:46:45.359Z,11.29
2022-12-24T05:49:15.260Z,10.65
2022-12-24T05:51:45.194Z,11.83
2022-12-24T05:54:14.014Z,10.69
2022-12-24T05:56:42.266Z,10.70
2022-12-24T05:59:10.491Z,11.06
2022-12-24T06:01:38.789Z,10.80
2022-12-24T06:04:07.161Z,10.77
2022-12-24T06:06:35.614Z,10.80
2022-12-24T06:09:05.589Z,10.65
2022-12-24T06:11:33.776Z,10.66
2022-12-24T06:14:01.944Z,10.74
2022-12-24T06:16:30.225Z,10.91
2022-12-24T06:18:58.499Z,11.33
2022-12-24T06:21:27.084Z,11.39
2022-12-24T06:23:55.570Z,10.92
2022-12-24T06:26:25.429Z,11.17
2022-12-24T06:28:54.184Z,11.16
2022-12-24T06:31:24.445Z,11.35
2022-12-24T06:33:53.856Z,11.20
2022-12-24T06:36:25.349Z,11.77
2022-12-24T06:38:55.286Z,10.99
2022-12-24T06:41:25.362Z,11.39
2022-12-24T06:43:54.735Z,10.65
2022-12-24T06:46:23.749Z,10.85
2022-12-24T06:48:52.315Z,10.67
2022-12-24T06:51:21.107Z,11.09
2022-12-24T06:53:50.575Z,11.28
2022-12-24T06:56:20.681Z,11.16
2022-12-24T06:58:50.468Z,10.94
2022-12-24T07:01:21.135Z,10.44
2022-12-24T07:03:49.809Z,10.77
2022-12-24T07:06:25.141Z,10.76
2022-12-24T07:08:53.552Z,10.56
2022-12-24T07:11:22.620Z,10.90
2022-12-24T07:13:52.409Z,11.15
2022-12-24T07:16:20.759Z,11.23
2022-12-24T07:18:49.910Z,11.21
2022-12-24T07:21:18.130Z,11.09
2022-12-24T07:23:46.319Z,10.85
2022-12-24T07:26:14.530Z,10.91
2022-12-24T07:28:43.041Z,10.57
2022-12-24T07:31:13.142Z,10.64
2022-12-24T07:33:41.751Z,10.65
2022-12-24T07:36:15.548Z,11.09
2022-12-24T07:38:44.031Z,10.78
2022-12-24T07:41:12.674Z,10.50
2022-12-24T07:43:41.749Z,11.35
2022-12-24T07:46:10.374Z,12.20
2022-12-24T07:48:40.556Z,11.95
2022-12-24T07:51:09.421Z,11.33
2022-12-24T07:53:37.971Z,11.16
2022-12-24T07:56:12.447Z,11.50
2022-12-24T07:58:41.509Z,11.33
2022-12-24T08:01:10.257Z,12.17
2022-12-24T08:03:40.378Z,12.15
2022-12-24T08:06:09.383Z,11.74
2022-12-24T08:08:38.199Z,12.00
2022-12-24T08:11:08.720Z,11.92
2022-12-24T08:13:37.472Z,11.68
2022-12-24T08:16:06.472Z,11.32
2022-12-24T08:18:35.069Z,11.09
2022-12-24T08:21:08.041Z,11.92
2022-12-24T08:23:36.661Z,12.25
2022-12-24T08:26:07.869Z,12.16
2022-12-24T08:28:36.585Z,12.22
2022-12-24T08:31:05.653Z,12.44
2022-12-24T08:33:34.304Z,12.93
2022-12-24T08:36:04.761Z,12.79
2022-12-24T08:38:33.676Z,12.27
2022-12-24T08:41:02.172Z,12.67
2022-12-24T08:43:30.999Z,12.39
2022-12-24T08:46:04.715Z,12.00
2022-12-24T08:48:33.993Z,11.94
2022-12-24T08:51:06.866Z,12.08
2022-12-24T08:53:35.347Z,12.20
2022-12-24T08:56:04.914Z,12.59
2022-12-24T08:58:33.892Z,12.24
2022-12-24T09:01:02.771Z,12.36
2022-12-24T09:03:31.128Z,12.60
2022-12-24T09:05:59.430Z,11.84
2022-12-24T09:08:29.097Z,11.82
2022-12-24T09:10:57.331Z,11.68
2022-12-24T09:13:25.492Z,11.87
2022-12-24T09:15:57.174Z,11.74
2022-12-24T09:18:26.180Z,11.63
2022-12-24T09:21:01.322Z,11.71
2022-12-24T09:23:31.655Z,11.67
2022-12-24T09:26:00.190Z,11.10
2022-12-24T09:28:28.660Z,11.54
2022-12-24T09:30:59.767Z,10.98
2022-12-24T09:33:28.879Z,11.41
2022-12-24T09:35:57.485Z,10.79
2022-12-24T09:38:26.244Z,11.18
2022-12-24T09:41:01.151Z,11.56
2022-12-24T09:43:35.167Z,11.38
2022-12-24T09:46:10.994Z,10.94
2022-12-24T09:48:44.837Z,11.08
2022-12-24T09:51:22.451Z,10.84
2022-12-24T09:53:55.829Z,11.46
2022-12-24T09:56:31.297Z,11.69
2022-12-24T09:59:02.257Z,11.91
2022-12-24T10:01:32.790Z,11.79
2022-12-24T10:04:05.108Z,11.75
2022-12-24T10:06:39.632Z,11.24
2022-12-24T10:09:18.164Z,11.26
2022-12-24T10:11:55.166Z,11.71
2022-12-24T10:14:48.228Z,12.15
2022-12-24T10:17:31.764Z,12.03
2022-12-24T10:20:14.150Z,12.48
2022-12-24T10:22:54.767Z,11.56
2022-12-24T10:25:27.212Z,11.58
2022-12-24T10:28:00.601Z,12.11
2022-12-24T10:30:30.057Z,11.21
2022-12-24T10:32:58.606Z,12.06
2022-12-24T10:35:30.428Z,11.94
2022-12-24T10:37:59.019Z,12.25
2022-12-24T10:40:36.812Z,12.29
2022-12-24T10:43:14.979Z,11.56
2022-12-24T10:45:47.252Z,12.38
2022-12-24T10:48:23.897Z,11.91
2022-12-24T10:51:00.568Z,12.11
2022-12-24T10:53:45.585Z,11.83
2022-12-24T10:56:17.335Z,12.57
2022-12-24T10:58:52.233Z,11.84
2022-12-24T11:01:21.061Z,11.97
2022-12-24T11:04:02.716Z,11.61
2022-12-24T11:06:31.284Z,11.70
2022-12-24T11:09:21.765Z,12.05
2022-12-24T11:11:50.862Z,12.12
2022-12-24T11:14:22.273Z,12.73
2022-12-24T11:16:53.632Z,12.78
2022-12-24T11:19:31.061Z,12.55
2022-12-24T11:22:05.912Z,12.55
2022-12-24T11:24:36.595Z,13.16
2022-12-24T11:27:25.914Z,12.47
2022-12-24T11:30:22.215Z,12.37
2022-12-24T11:32:52.515Z,12.08
2022-12-24T11:35:22.859Z,12.97
2022-12-24T11:38:10.221Z,11.94
2022-12-24T11:40:41.511Z,11.47
2022-12-24T11:43:17.018Z,11.54
2022-12-24T11:45:52.978Z,12.02
2022-12-24T11:48:29.596Z,12.01
2022-12-24T11:50:59.778Z,11.77
2022-12-24T11:53:36.026Z,12.22
2022-12-24T11:56:09.490Z,11.88
2022-12-24T11:58:43.632Z,12.21
2022-12-24T12:01:21.381Z,12.19
2022-12-24T12:03:52.613Z,12.22
2022-12-24T12:06:30.685Z,12.01
2022-12-24T12:09:03.582Z,12.50
2022-12-24T12:11:33.793Z,12.49
2022-12-24T12:14:04.512Z,12.26
2022-12-24T12:17:04.090Z,11.97
2022-12-24T12:19:40.056Z,12.56
2022-12-24T12:22:17.101Z,12.46
2022-12-24T12:24:52.115Z,12.97
2022-12-24T12:27:28.195Z,13.16
2022-12-24T12:30:02.841Z,13.02
2022-12-24T12:32:43.241Z,12.36
2022-12-24T12:35:22.950Z,12.42
2022-12-24T12:37:58.963Z,12.67
2022-12-24T12:40:49.194Z,12.93
2022-12-24T12:43:32.624Z,12.56
2022-12-24T12:46:10.905Z,12.52
2022-12-24T12:49:03.105Z,12.69
2022-12-24T12:51:38.965Z,13.34
2022-12-24T12:54:28.686Z,13.53
2022-12-24T12:57:02.406Z,12.71
2022-12-24T12:59:38.106Z,12.35
2022-12-24T13:02:26.402Z,12.91
2022-12-24T13:05:43.343Z,12.57
2022-12-24T13:08:27.558Z,12.42
2022-12-24T13:11:25.253Z,12.62
2022-12-24T13:14:36.312Z,12.30
2022-12-24T13:17:35.357Z,12.13
2022-12-24T13:20:21.750Z,12.18
2022-12-24T13:22:57.690Z,12.77
2022-12-24T13:25:32.667Z,12.37
2022-12-24T13:28:16.907Z,12.14
2022-12-24T13:30:45.786Z,12.33
2022-12-24T13:33:15.358Z,12.17
2022-12-24T13:36:03.062Z,11.95
2022-12-24T13:38:50.267Z,12.48
2022-12-24T13:41:57.540Z,12.11
2022-12-24T13:44:32.941Z,12.08
2022-12-24T13:47:05.039Z,11.46
2022-12-24T13:49:37.155Z,12.19
2022-12-24T13:52:26.272Z,11.96
2022-12-24T13:55:16.833Z,11.84
2022-12-24T13:57:58.585Z,12.43
2022-12-24T14:00:41.025Z,12.52
2022-12-24T14:03:24.785Z,11.88
2022-12-24T14:05:56.241Z,12.35
2022-12-24T14:08:36.112Z,12.27
2022-12-24T14:11:09.001Z,12.11
2022-12-24T14:14:09.600Z,11.87
2022-12-24T14:16:50.595Z,13.09
2022-12-24T14:19:23.808Z,12.88
2022-12-24T14:22:02.217Z,12.29
2022-12-24T14:24:35.476Z,12.29
2022-12-24T14:27:16.545Z,12.51
2022-12-24T14:29:51.808Z,12.78
2022-12-24T14:32:20.703Z,13.31
2022-12-24T14:35:05.698Z,12.79
2022-12-24T14:37:34.870Z,13.24
2022-12-24T14:40:05.424Z,13.65
2022-12-24T14:42:43.814Z,13.40
2022-12-24T14:45:24.079Z,13.61
2022-12-24T14:48:00.783Z,13.33
2022-12-24T14:50:52.745Z,13.30
2022-12-24T14:53:34.088Z,13.66
2022-12-24T14:56:14.927Z,13.57
2022-12-24T14:58:44.880Z,13.74
2022-12-24T15:01:23.658Z,13.56
2022-12-24T15:04:03.109Z,13.77
2022-12-24T15:06:34.557Z,13.81
2022-12-24T15:09:03.173Z,13.85
2022-12-24T15:11:33.287Z,13.84
2022-12-24T15:14:02.142Z,13.89
2022-12-24T15:16:33.971Z,13.95
2022-12-24T15:19:06.914Z,13.96
2022-12-24T15:21:41.376Z,13.80
2022-12-24T15:24:25.994Z,13.80
2022-12-24T15:26:56.463Z,13.57
2022-12-24T15:29:27.698Z,13.70
2022-12-24T15:31:58.586Z,13.73
2022-12-24T15:34:36.120Z,13.73
2022-12-24T15:37:08.531Z,13.74
2022-12-24T15:39:37.510Z,13.76
2022-12-24T15:42:14.423Z,13.74
2022-12-24T15:44:46.132Z,13.73
2022-12-24T15:47:20.657Z,13.75
2022-12-24T15:49:53.077Z,13.74
2022-12-24T15:52:25.038Z,13.71
2022-12-24T15:54:58.032Z,13.66
2022-12-24T15:57:32.716Z,13.64
2022-12-24T16:00:02.867Z,13.56
2022-12-24T16:02:38.445Z,13.54
2022-12-24T16:05:30.563Z,13.50
2022-12-24T16:08:27.017Z,13.42
2022-12-24T16:11:19.176Z,13.44
2022-12-24T16:14:06.517Z,13.44
2022-12-24T16:16:38.119Z,13.41
2022-12-24T16:19:08.504Z,13.24
2022-12-24T16:21:39.519Z,13.28
2022-12-24T16:24:16.702Z,13.36
2022-12-24T16:26:45.251Z,13.40
2022-12-24T16:29:15.481Z,13.43
2022-12-24T16:31:47.917Z,13.43
2022-12-24T16:34:17.596Z,13.42
2022-12-24T16:36:47.548Z,13.40
2022-12-24T16:39:28.474Z,13.38
2022-12-24T16:42:17.302Z,13.41
2022-12-24T16:44:47.831Z,13.34
2022-12-24T16:47:19.339Z,13.33
2022-12-24T16:49:48.077Z,13.37
2022-12-24T16:52:21.473Z,13.37
2022-12-24T16:54:49.982Z,13.36
2022-12-24T16:57:18.969Z,13.39
2022-12-24T16:59:49.369Z,13.38
2022-12-24T17:02:21.194Z,13.35
2022-12-24T17:04:50.204Z,13.32
2022-12-24T17:07:20.897Z,13.29
2022-12-24T17:09:49.586Z,13.32
2022-12-24T17:12:18.159Z,13.35
2022-12-24T17:14:48.097Z,13.29
2022-12-24T17:17:23.687Z,13.23
2022-12-24T17:19:52.205Z,13.16
2022-12-24T17:22:20.939Z,13.21
2022-12-24T17:24:49.540Z,13.26
2022-12-24T17:27:18.227Z,13.24
2022-12-24T17:29:48.137Z,13.23
2022-12-24T17:32:16.890Z,13.12
2022-12-24T17:34:45.427Z,13.14
2022-12-24T17:37:14.068Z,13.15
2022-12-24T17:39:42.575Z,13.17
2022-12-24T17:42:11.139Z,13.07
2022-12-24T17:44:39.650Z,13.15
2022-12-24T17:47:09.483Z,13.12
2022-12-24T17:49:38.266Z,13.09
2022-12-24T17:52:06.889Z,13.09
2022-12-24T17:54:35.426Z,13.06
2022-12-24T17:57:03.934Z,13.06
2022-12-24T17:59:33.148Z,13.04
2022-12-24T18:02:01.737Z,13.04
2022-12-24T18:04:31.669Z,13.04
2022-12-24T18:07:02.801Z,13.02
2022-12-24T18:09:31.726Z,13.00
2022-12-24T18:12:00.944Z,13.02
2022-12-24T18:14:29.618Z,13.01
2022-12-24T18:16:58.116Z,13.01
2022-12-24T18:19:26.795Z,13.00
2022-12-24T18:21:56.989Z,12.94
2022-12-24T18:24:25.474Z,12.90
2022-12-24T18:26:55.165Z,12.91
2022-12-24T18:29:23.666Z,12.96
2022-12-24T18:31:52.735Z,12.93
2022-12-24T18:34:21.428Z,12.93
2022-12-24T18:36:55.130Z,12.88
2022-12-24T18:39:25.357Z,12.91
2022-12-24T18:41:53.870Z,12.91
2022-12-24T18:44:25.436Z,12.96
2022-12-24T18:46:54.991Z,13.00
2022-12-24T18:49:23.512Z,12.95
2022-12-24T18:51:52.005Z,13.00
2022-12-24T18:54:20.480Z,12.88
2022-12-24T18:56:51.877Z,12.85
2022-12-24T18:59:20.443Z,12.83
2022-12-24T19:01:49.197Z,12.86
2022-12-24T19:04:18.003Z,12.90
2022-12-24T19:06:52.651Z,12.91
2022-12-24T19:09:21.770Z,12.94
2022-12-24T19:11:51.604Z,12.96
2022-12-24T19:14:20.882Z,12.96
2022-12-24T19:16:49.457Z,12.89
2022-12-24T19:19:18.809Z,12.84
2022-12-24T19:21:47.339Z,12.88
2022-12-24T19:24:15.837Z,12.93
2022-12-24T19:26:45.085Z,13.02
2022-12-24T19:29:14.950Z,13.05
2022-12-24T19:31:47.154Z,13.01
2022-12-24T19:34:16.127Z,12.86
2022-12-24T19:36:44.683Z,13.03
2022-12-24T19:39:13.156Z,13.02
2022-12-24T19:41:41.787Z,12.89
2022-12-24T19:44:12.178Z,12.91
2022-12-24T19:46:42.035Z,12.96
2022-12-24T19:49:13.079Z,12.91
2022-12-24T19:51:41.572Z,12.93
2022-12-24T19:54:18.709Z,12.83
2022-12-24T19:56:47.928Z,12.89
2022-12-24T19:59:16.446Z,12.85
2022-12-24T20:01:47.181Z,12.89
2022-12-24T20:04:18.379Z,12.88
2022-12-24T20:06:46.939Z,12.86
2022-12-24T20:09:15.396Z,12.72
2022-12-24T20:11:43.969Z,12.50
2022-12-24T20:14:13.394Z,12.71
2022-12-24T20:16:42.071Z,12.63
2022-12-24T20:19:15.890Z,12.63
2022-12-24T20:21:44.380Z,12.71
2022-12-24T20:24:12.977Z,12.70
2022-12-24T20:26:41.557Z,12.70
2022-12-24T20:29:11.718Z,12.59
2022-12-24T20:31:40.703Z,12.75
2022-12-24T20:34:09.538Z,12.73
2022-12-24T20:36:40.793Z,12.81
2022-12-24T20:39:09.399Z,12.82
2022-12-24T20:41:38.155Z,12.78
2022-12-24T20:44:07.031Z,12.73
2022-12-24T20:46:35.713Z,12.76
2022-12-24T20:49:05.197Z,12.79
2022-12-24T20:51:33.829Z,12.77
2022-12-24T20:54:03.665Z,12.82
2022-12-24T20:56:32.674Z,12.79
2022-12-24T20:59:01.823Z,12.87
2022-12-24T21:01:31.003Z,12.80
2022-12-24T21:04:05.556Z,12.80
2022-12-24T21:06:34.914Z,12.83
2022-12-24T21:09:06.790Z,12.80
2022-12-24T21:11:53.289Z,12.38
2022-12-24T21:14:23.536Z,12.67
2022-12-24T21:16:52.910Z,12.73
2022-12-24T21:19:23.917Z,12.70
2022-12-24T21:21:52.732Z,12.73
2022-12-24T21:24:22.597Z,12.72
2022-12-24T21:26:51.093Z,12.79
2022-12-24T21:29:19.548Z,12.85
2022-12-24T21:31:48.322Z,12.81
2022-12-24T21:34:16.939Z,12.71
2022-12-24T21:36:45.435Z,12.20
2022-12-24T21:39:13.941Z,12.05
2022-12-24T21:41:43.783Z,12.48
2022-12-24T21:44:12.273Z,12.48
2022-12-24T21:46:40.783Z,12.36
2022-12-24T21:49:29.438Z,12.36
2022-12-24T21:51:59.175Z,12.03
2022-12-24T21:54:28.432Z,11.92
2022-12-24T21:57:18.547Z,12.15
2022-12-24T21:59:47.414Z,11.87
2022-12-24T22:02:17.063Z,12.13
2022-12-24T22:04:46.113Z,12.07
2022-12-24T22:07:39.775Z,11.92
2022-12-24T22:10:26.814Z,12.11
2022-12-24T22:12:56.999Z,12.38
2022-12-24T22:15:25.568Z,12.39
2022-12-24T22:17:54.057Z,12.45
2022-12-24T22:20:22.524Z,12.12
2022-12-24T22:22:51.105Z,12.21
2022-12-24T22:25:19.910Z,11.71
2022-12-24T22:27:48.414Z,12.21
2022-12-24T22:30:18.392Z,12.38
2022-12-24T22:32:46.923Z,12.25
2022-12-24T22:35:15.615Z,11.92
2022-12-24T22:37:44.156Z,11.40
2022-12-24T22:40:13.875Z,11.78
2022-12-24T22:42:42.394Z,11.80
2022-12-24T22:45:18.422Z,11.40
2022-12-24T22:47:51.816Z,11.38
2022-12-24T22:50:20.424Z,11.64
2022-12-24T22:52:48.943Z,11.36
2022-12-24T22:55:17.605Z,11.44
2022-12-24T22:57:46.134Z,11.44
2022-12-24T23:00:18.324Z,11.91
2022-12-24T23:02:46.944Z,11.49
2022-12-24T23:05:17.877Z,11.45
2022-12-24T23:07:46.424Z,11.79
2022-12-24T23:10:14.913Z,11.58
2022-12-24T23:13:00.950Z,12.03
2022-12-24T23:15:29.493Z,12.20
2022-12-24T23:17:58.011Z,11.81
2022-12-24T23:20:28.601Z,11.89
2022-12-24T23:22:57.316Z,11.44
2022-12-24T23:25:26.289Z,11.84
2022-12-24T23:27:54.799Z,11.85
2022-12-24T23:30:23.254Z,11.84
2022-12-24T23:32:51.764Z,12.09
2022-12-24T23:35:20.271Z,12.14
2022-12-24T23:37:50.115Z,12.10
2022-12-24T23:40:18.624Z,12.28
2022-12-24T23:42:47.176Z,12.34
2022-12-24T23:45:15.729Z,12.48
2022-12-24T23:47:44.285Z,12.53
2022-12-24T23:50:13.122Z,12.33
2022-12-24T23:52:41.653Z,12.44
2022-12-24T23:55:11.568Z,12.39
2022-12-24T23:57:40.066Z,12.41
